createdAt,value
2023-04-02T00:00:36.845Z,1.00
2023-04-02T00:03:09.820Z,1.05
2023-04-02T00:05:50.579Z,1.23
2023-04-02T00:08:24.840Z,0.97
2023-04-02T00:11:00.697Z,2.03
2023-04-02T00:13:54.917Z,2.83
2023-04-02T00:16:24.967Z,1.33
2023-04-02T00:18:58.252Z,3.25
2023-04-02T00:21:32.369Z,1.30
2023-04-02T00:24:01.860Z,1.58
2023-04-02T00:26:37.112Z,1.08
2023-04-02T00:29:07.002Z,1.75
2023-04-02T00:31:38.322Z,4.70
2023-04-02T00:34:09.218Z,2.43
2023-04-02T00:36:37.296Z,1.17
2023-04-02T00:39:13.584Z,1.23
2023-04-02T00:41:47.253Z,1.67
2023-04-02T00:44:21.859Z,1.60
2023-04-02T00:46:51.120Z,1.73
2023-04-02T00:49:31.797Z,2.90
2023-04-02T00:52:13.298Z,1.12
2023-04-02T00:54:57.870Z,0.98
2023-04-02T00:57:28.289Z,1.48
2023-04-02T01:00:08.093Z,1.40
2023-04-02T01:02:38.519Z,1.35
2023-04-02T01:05:15.147Z,1.05
2023-04-02T01:07:43.071Z,0.90
2023-04-02T01:10:31.497Z,0.75
2023-04-02T01:13:06.402Z,0.80
2023-04-02T01:15:41.610Z,1.87
2023-04-02T01:18:26.555Z,0.70
2023-04-02T01:21:16.187Z,1.00
2023-04-02T01:23:56.165Z,0.52
2023-04-02T01:26:51.279Z,0.93
2023-04-02T01:29:32.698Z,1.10
2023-04-02T01:32:08.708Z,0.73
2023-04-02T01:34:38.127Z,0.90
2023-04-02T01:37:36.843Z,0.70
2023-04-02T01:40:22.148Z,0.70
2023-04-02T01:42:56.858Z,1.05
2023-04-02T01:45:25.111Z,0.70
2023-04-02T01:47:52.913Z,0.80
2023-04-02T01:50:20.437Z,0.70
2023-04-02T01:52:55.644Z,1.30
2023-04-02T01:55:49.755Z,2.05
2023-04-02T01:58:21.639Z,0.85
2023-04-02T02:01:21.730Z,0.77
2023-04-02T02:03:51.793Z,0.93
2023-04-02T02:06:20.094Z,1.53
2023-04-02T02:08:53.675Z,0.70
2023-04-02T02:11:24.616Z,1.00
2023-04-02T02:14:19.498Z,1.10
2023-04-02T02:16:48.295Z,0.62
2023-04-02T02:19:31.318Z,0.60
2023-04-02T02:22:16.799Z,1.20
2023-04-02T02:24:44.858Z,1.65
2023-04-02T02:27:40.334Z,1.83
2023-04-02T02:30:16.690Z,0.82
2023-04-02T02:32:53.714Z,2.13
2023-04-02T02:35:32.292Z,0.70
2023-04-02T02:38:14.786Z,0.90
2023-04-02T02:40:47.306Z,0.35
2023-04-02T02:43:17.489Z,0.65
2023-04-02T02:45:47.647Z,0.60
2023-04-02T02:48:19.641Z,0.70
2023-04-02T02:50:48.876Z,0.50
2023-04-02T02:53:22.831Z,0.70
2023-04-02T02:55:58.008Z,0.68
2023-04-02T02:58:31.431Z,0.67
2023-04-02T03:00:59.895Z,0.85
2023-04-02T03:03:32.760Z,0.40
2023-04-02T03:06:05.429Z,1.95
2023-04-02T03:08:51.520Z,0.40
2023-04-02T03:11:48.763Z,0.50
2023-04-02T03:14:21.226Z,0.47
2023-04-02T03:16:54.793Z,0.70
2023-04-02T03:19:44.822Z,0.30
2023-04-02T03:22:36.088Z,0.50
2023-04-02T03:25:37.146Z,0.30
2023-04-02T03:28:12.808Z,0.75
2023-04-02T03:30:49.665Z,0.13
2023-04-02T03:33:24.194Z,0.30
2023-04-02T03:36:03.861Z,0.50
2023-04-02T03:38:36.974Z,0.77
2023-04-02T03:41:10.153Z,0.37
2023-04-02T03:44:02.526Z,0.35
2023-04-02T03:46:42.176Z,0.73
2023-04-02T03:49:28.105Z,0.70
2023-04-02T03:52:14.703Z,0.70
2023-04-02T03:54:53.776Z,0.40
2023-04-02T03:57:37.625Z,0.37
2023-04-02T04:00:06.537Z,0.52
2023-04-02T04:02:52.649Z,0.52
2023-04-02T04:05:24.769Z,0.30
2023-04-02T04:07:59.929Z,0.70
2023-04-02T04:10:29.384Z,0.70
2023-04-02T04:13:05.894Z,0.35
2023-04-02T04:15:43.218Z,0.40
2023-04-02T04:18:43.898Z,0.50
2023-04-02T04:21:37.525Z,0.20
2023-04-02T04:24:21.823Z,0.82
2023-04-02T04:26:58.403Z,0.40
2023-04-02T04:29:31.974Z,0.30
2023-04-02T04:32:17.051Z,0.40
2023-04-02T04:34:53.571Z,0.35
2023-04-02T04:37:29.172Z,0.28
2023-04-02T04:40:07.464Z,0.60
2023-04-02T04:42:38.538Z,3.17
2023-04-02T04:45:23.400Z,0.50
2023-04-02T04:47:59.224Z,0.68
2023-04-02T04:50:38.875Z,0.50
2023-04-02T04:53:14.069Z,0.57
2023-04-02T04:55:47.630Z,0.50
2023-04-02T04:58:19.842Z,0.30
2023-04-02T05:01:01.823Z,0.93
2023-04-02T05:03:52.282Z,0.85
2023-04-02T05:06:36.774Z,1.70
2023-04-02T05:09:26.092Z,1.85
2023-04-02T05:12:33.039Z,0.90
2023-04-02T05:15:10.037Z,0.80
2023-04-02T05:18:09.244Z,0.60
2023-04-02T05:21:17.490Z,1.37
2023-04-02T05:23:52.962Z,1.50
2023-04-02T05:26:26.185Z,2.20
2023-04-02T05:29:08.822Z,0.88
2023-04-02T05:31:50.476Z,0.73
2023-04-02T05:34:25.506Z,1.35
2023-04-02T05:36:55.774Z,1.23
2023-04-02T05:39:25.511Z,1.93
2023-04-02T05:42:04.771Z,0.50
2023-04-02T05:44:41.664Z,1.20
2023-04-02T05:47:41.088Z,1.10
2023-04-02T05:50:12.511Z,1.77
2023-04-02T05:52:48.893Z,1.43
2023-04-02T05:55:17.129Z,1.20
2023-04-02T05:58:04.377Z,2.58
2023-04-02T06:00:39.269Z,3.47
2023-04-02T06:03:30.128Z,0.73
2023-04-02T06:06:03.969Z,0.30
2023-04-02T06:08:41.758Z,0.40
2023-04-02T06:11:13.756Z,0.40
2023-04-02T06:13:42.048Z,0.80
2023-04-02T06:16:15.180Z,0.40
2023-04-02T06:18:44.392Z,0.60
2023-04-02T06:21:17.555Z,0.47
2023-04-02T06:23:55.232Z,0.30
2023-04-02T06:26:26.496Z,0.40
2023-04-02T06:29:08.880Z,0.30
2023-04-02T06:31:38.854Z,0.57
2023-04-02T06:34:17.246Z,0.25
2023-04-02T06:36:46.266Z,0.75
2023-04-02T06:39:23.040Z,0.60
2023-04-02T06:42:02.378Z,0.20
2023-04-02T06:44:37.735Z,0.37
2023-04-02T06:47:43.407Z,0.30
2023-04-02T06:50:18.944Z,0.93
2023-04-02T06:52:48.629Z,0.47
2023-04-02T06:55:35.642Z,0.55
2023-04-02T06:58:03.437Z,0.43
2023-04-02T07:00:46.465Z,0.37
2023-04-02T07:03:19.764Z,0.50
2023-04-02T07:05:47.889Z,0.30
2023-04-02T07:08:15.754Z,0.62
2023-04-02T07:10:43.467Z,0.20
2023-04-02T07:13:21.553Z,0.50
2023-04-02T07:15:52.512Z,1.30
2023-04-02T07:18:29.849Z,0.30
2023-04-02T07:20:58.301Z,1.25
2023-04-02T07:23:26.812Z,3.17
2023-04-02T07:25:56.190Z,1.00
2023-04-02T07:28:24.212Z,1.70
2023-04-02T07:30:53.052Z,0.88
2023-04-02T07:33:24.350Z,2.25
2023-04-02T07:35:54.094Z,0.43
2023-04-02T07:38:21.737Z,0.70
2023-04-02T07:40:49.431Z,0.93
2023-04-02T07:43:17.281Z,0.60
2023-04-02T07:45:44.766Z,3.15
2023-04-02T07:48:13.832Z,0.50
2023-04-02T07:50:42.001Z,1.55
2023-04-02T07:53:27.925Z,0.68
2023-04-02T07:55:57.058Z,1.00
2023-04-02T07:58:24.646Z,0.60
2023-04-02T08:00:52.168Z,0.50
2023-04-02T08:03:20.113Z,1.35
2023-04-02T08:05:56.201Z,0.68
2023-04-02T08:08:24.960Z,1.20
2023-04-02T08:10:52.485Z,1.25
2023-04-02T08:13:20.015Z,1.90
2023-04-02T08:15:47.843Z,0.57
2023-04-02T08:18:15.342Z,0.80
2023-04-02T08:20:42.814Z,0.43
2023-04-02T08:23:17.192Z,0.60
2023-04-02T08:25:45.703Z,0.47
2023-04-02T08:28:13.939Z,0.95
2023-04-02T08:30:42.174Z,0.50
2023-04-02T08:33:09.759Z,0.70
2023-04-02T08:35:37.967Z,0.75
2023-04-02T08:38:05.935Z,0.73
2023-04-02T08:40:37.007Z,1.55
2023-04-02T08:43:23.748Z,0.50
2023-04-02T08:46:41.864Z,0.88
2023-04-02T08:49:19.929Z,3.12
2023-04-02T08:51:47.744Z,0.47
2023-04-02T08:54:27.986Z,0.68
2023-04-02T08:57:05.175Z,1.20
2023-04-02T08:59:39.369Z,0.70
2023-04-02T09:02:47.091Z,1.17
2023-04-02T09:05:26.671Z,1.53
2023-04-02T09:07:58.376Z,0.68
2023-04-02T09:10:37.430Z,1.12
2023-04-02T09:13:13.662Z,0.43
2023-04-02T09:15:41.488Z,0.90
2023-04-02T09:18:20.165Z,0.70
2023-04-02T09:20:49.500Z,1.77
2023-04-02T09:23:23.061Z,0.85
2023-04-02T09:26:03.506Z,1.20
2023-04-02T09:28:32.197Z,1.35
2023-04-02T09:31:07.000Z,1.07
2023-04-02T09:33:49.705Z,0.90
2023-04-02T09:36:39.494Z,1.00
2023-04-02T09:39:17.757Z,0.65
2023-04-02T09:41:52.882Z,1.95
2023-04-02T09:44:31.223Z,1.27
2023-04-02T09:47:04.544Z,0.82
2023-04-02T09:49:37.491Z,0.80
2023-04-02T09:52:19.169Z,0.95
2023-04-02T09:55:04.766Z,0.98
2023-04-02T09:57:33.547Z,1.13
2023-04-02T10:00:31.972Z,1.95
2023-04-02T10:03:26.802Z,2.10
2023-04-02T10:06:09.454Z,1.85
2023-04-02T10:08:40.305Z,4.78
2023-04-02T10:11:43.608Z,1.70
2023-04-02T10:14:25.630Z,1.65
2023-04-02T10:17:08.518Z,1.00
2023-04-02T10:19:38.954Z,3.55
2023-04-02T10:22:16.519Z,1.35
2023-04-02T10:24:44.744Z,1.90
2023-04-02T10:27:29.830Z,1.20
2023-04-02T10:30:39.304Z,0.73
2023-04-02T10:33:18.520Z,2.03
2023-04-02T10:36:11.415Z,1.25
2023-04-02T10:38:54.586Z,6.23
2023-04-02T10:41:32.981Z,1.25
2023-04-02T10:44:29.482Z,2.55
2023-04-02T10:47:22.445Z,1.62
2023-04-02T10:50:05.109Z,0.82
2023-04-02T10:52:39.384Z,0.80
2023-04-02T10:55:18.132Z,0.85
2023-04-02T10:57:46.830Z,0.77
2023-04-02T11:00:28.772Z,0.77
2023-04-02T11:03:07.174Z,0.80
2023-04-02T11:05:57.593Z,0.40
2023-04-02T11:08:39.761Z,0.88
2023-04-02T11:11:10.170Z,0.65
2023-04-02T11:13:46.973Z,0.80
2023-04-02T11:16:15.628Z,0.68
2023-04-02T11:18:44.946Z,0.90
2023-04-02T11:21:30.455Z,0.80
2023-04-02T11:24:02.836Z,0.60
2023-04-02T11:26:42.688Z,0.65
2023-04-02T11:29:28.707Z,1.30
2023-04-02T11:32:20.787Z,1.40
2023-04-02T11:34:56.393Z,0.45
2023-04-02T11:37:45.745Z,0.68
2023-04-02T11:40:16.511Z,0.52
2023-04-02T11:42:51.627Z,0.50
2023-04-02T11:45:22.302Z,0.43
2023-04-02T11:48:17.166Z,0.50
2023-04-02T11:50:46.487Z,0.60
2023-04-02T11:53:17.439Z,1.40
2023-04-02T11:56:06.568Z,0.90
2023-04-02T11:58:56.164Z,0.70
2023-04-02T12:01:45.522Z,1.23
2023-04-02T12:04:23.362Z,0.60
2023-04-02T12:07:26.768Z,1.50
2023-04-02T12:09:57.999Z,1.27
2023-04-02T12:12:38.848Z,0.53
2023-04-02T12:15:28.138Z,0.70
2023-04-02T12:18:10.541Z,0.70
2023-04-02T12:20:38.857Z,0.80
2023-04-02T12:23:06.843Z,0.75
2023-04-02T12:25:40.482Z,0.70
2023-04-02T12:28:11.460Z,1.00
2023-04-02T12:30:39.836Z,0.77
2023-04-02T12:33:19.644Z,0.98
2023-04-02T12:35:49.378Z,0.70
2023-04-02T12:38:25.239Z,1.93
2023-04-02T12:40:58.515Z,0.88
2023-04-02T12:43:34.891Z,1.73
2023-04-02T12:46:05.760Z,1.77
2023-04-02T12:48:35.240Z,0.75
2023-04-02T12:51:04.236Z,0.80
2023-04-02T12:53:39.717Z,0.90
2023-04-02T12:56:08.539Z,0.65
2023-04-02T12:58:37.500Z,0.73
2023-04-02T13:01:20.661Z,0.90
2023-04-02T13:04:22.114Z,0.80
2023-04-02T13:06:52.314Z,0.70
2023-04-02T13:09:35.826Z,0.77
2023-04-02T13:12:03.818Z,1.37
2023-04-02T13:14:31.751Z,0.88
2023-04-02T13:16:59.260Z,0.70
2023-04-02T13:19:32.528Z,0.60
2023-04-02T13:22:03.024Z,0.40
2023-04-02T13:24:32.962Z,0.52
2023-04-02T13:27:03.291Z,0.47
2023-04-02T13:29:35.628Z,0.80
2023-04-02T13:32:06.418Z,0.80
2023-04-02T13:34:33.964Z,0.62
2023-04-02T13:37:01.468Z,0.90
2023-04-02T13:39:30.532Z,0.98
2023-04-02T13:42:01.678Z,1.13
2023-04-02T13:44:31.913Z,2.15
2023-04-02T13:47:00.711Z,0.47
2023-04-02T13:49:28.543Z,0.57
2023-04-02T13:51:59.238Z,1.45
2023-04-02T13:54:48.908Z,5.80
2023-04-02T13:57:17.099Z,7.93
2023-04-02T13:59:44.648Z,3.28
2023-04-02T14:02:17.303Z,2.20
2023-04-02T14:04:51.159Z,1.92
2023-04-02T14:07:39.952Z,4.20
2023-04-02T14:10:26.160Z,0.93
2023-04-02T14:13:28.896Z,0.65
2023-04-02T14:16:42.260Z,0.70
2023-04-02T14:19:38.390Z,1.00
2023-04-02T14:22:38.023Z,1.03
2023-04-02T14:25:08.248Z,0.55
2023-04-02T14:27:51.269Z,0.77
2023-04-02T14:30:36.798Z,1.67
2023-04-02T14:33:38.834Z,0.93
2023-04-02T14:36:16.822Z,0.57
2023-04-02T14:38:55.746Z,0.55
2023-04-02T14:41:26.954Z,0.70
2023-04-02T14:44:06.785Z,1.02
2023-04-02T14:46:37.965Z,0.68
2023-04-02T14:49:26.815Z,0.80
2023-04-02T14:52:04.540Z,0.85
2023-04-02T14:54:45.249Z,1.05
2023-04-02T14:57:23.649Z,1.27
2023-04-02T14:59:58.707Z,1.20
2023-04-02T15:02:42.450Z,0.77
2023-04-02T15:05:17.840Z,0.90
2023-04-02T15:07:57.887Z,1.70
2023-04-02T15:10:31.776Z,1.25
2023-04-02T15:13:04.466Z,0.68
2023-04-02T15:15:47.590Z,0.60
2023-04-02T15:18:17.402Z,1.20
2023-04-02T15:21:07.604Z,1.20
2023-04-02T15:23:46.243Z,0.73
2023-04-02T15:26:26.421Z,0.80
2023-04-02T15:29:25.999Z,1.00
2023-04-02T15:32:18.740Z,1.20
2023-04-02T15:35:18.730Z,1.00
2023-04-02T15:37:55.599Z,0.80
2023-04-02T15:40:38.131Z,1.10
2023-04-02T15:43:24.592Z,0.77
2023-04-02T15:45:52.045Z,0.95
2023-04-02T15:48:44.607Z,0.80
2023-04-02T15:51:45.445Z,0.77
2023-04-02T15:54:22.803Z,1.95
2023-04-02T15:57:15.094Z,1.90
2023-04-02T16:00:22.575Z,0.52
2023-04-02T16:03:19.981Z,0.93
2023-04-02T16:05:59.643Z,0.90
2023-04-02T16:08:50.473Z,1.02
2023-04-02T16:11:17.998Z,1.43
2023-04-02T16:13:47.119Z,1.20
2023-04-02T16:16:24.007Z,1.02
2023-04-02T16:19:16.399Z,1.62
2023-04-02T16:21:57.261Z,1.10
2023-04-02T16:24:25.093Z,1.30
2023-04-02T16:27:24.706Z,1.00
2023-04-02T16:30:17.893Z,0.95
2023-04-02T16:32:48.187Z,1.12
2023-04-02T16:35:43.308Z,1.20
2023-04-02T16:38:36.227Z,1.73
2023-04-02T16:41:15.729Z,0.73
2023-04-02T16:43:58.216Z,0.82
2023-04-02T16:47:03.874Z,1.23
2023-04-02T16:49:38.748Z,1.65
2023-04-02T16:52:41.001Z,1.17
2023-04-02T16:55:26.831Z,0.80
2023-04-02T16:58:00.665Z,0.85
2023-04-02T17:01:08.588Z,1.25
2023-04-02T17:04:03.979Z,1.00
2023-04-02T17:06:55.261Z,1.17
2023-04-02T17:09:34.017Z,1.70
2023-04-02T17:12:23.263Z,1.67
2023-04-02T17:15:04.635Z,1.95
2023-04-02T17:17:33.398Z,2.42
2023-04-02T17:20:01.553Z,1.83
2023-04-02T17:22:31.557Z,2.95
2023-04-02T17:25:03.303Z,2.70
2023-04-02T17:27:42.202Z,3.30
2023-04-02T17:30:17.321Z,4.00
2023-04-02T17:32:45.463Z,2.67
2023-04-02T17:35:32.224Z,2.37
2023-04-02T17:38:19.780Z,2.35
2023-04-02T17:40:53.356Z,4.22
2023-04-02T17:44:01.161Z,1.77
2023-04-02T17:46:31.591Z,2.17
2023-04-02T17:49:46.239Z,3.30
2023-04-02T17:52:19.911Z,3.12
2023-04-02T17:55:22.575Z,2.67
2023-04-02T17:58:18.001Z,1.67
2023-04-02T18:00:45.752Z,2.03
2023-04-02T18:03:35.817Z,1.80
2023-04-02T18:06:35.536Z,1.37
2023-04-02T18:09:39.456Z,0.80
2023-04-02T18:12:25.405Z,1.33
2023-04-02T18:15:21.285Z,1.33
2023-04-02T18:18:05.733Z,1.33
2023-04-02T18:20:42.458Z,1.25
2023-04-02T18:23:40.354Z,1.92
2023-04-02T18:26:27.872Z,2.83
2023-04-02T18:29:04.213Z,1.70
2023-04-02T18:32:01.357Z,1.30
2023-04-02T18:34:47.393Z,0.95
2023-04-02T18:37:38.816Z,1.40
2023-04-02T18:40:31.854Z,1.55
2023-04-02T18:43:20.760Z,1.23
2023-04-02T18:46:15.451Z,1.70
2023-04-02T18:49:14.159Z,1.85
2023-04-02T18:51:41.656Z,1.80
2023-04-02T18:54:09.395Z,3.08
2023-04-02T18:56:40.576Z,3.10
2023-04-02T18:59:48.949Z,2.42
2023-04-02T19:02:35.918Z,2.92
2023-04-02T19:05:13.631Z,2.35
2023-04-02T19:07:44.350Z,2.72
2023-04-02T19:10:35.352Z,3.33
2023-04-02T19:13:08.201Z,3.20
2023-04-02T19:15:58.627Z,2.53
2023-04-02T19:18:41.743Z,3.10
2023-04-02T19:21:35.675Z,2.65
2023-04-02T19:24:26.346Z,3.80
2023-04-02T19:26:59.441Z,3.03
2023-04-02T19:29:45.884Z,3.33
2023-04-02T19:32:23.148Z,3.30
2023-04-02T19:35:06.434Z,4.37
2023-04-02T19:37:41.363Z,3.67
2023-04-02T19:40:27.784Z,3.60
2023-04-02T19:42:55.603Z,3.22
2023-04-02T19:45:39.665Z,3.33
2023-04-02T19:48:24.488Z,3.80
2023-04-02T19:50:53.052Z,3.90
2023-04-02T19:53:20.634Z,4.25
2023-04-02T19:55:48.268Z,4.20
2023-04-02T19:58:31.325Z,3.12
2023-04-02T20:00:59.004Z,3.53
2023-04-02T20:03:27.310Z,4.13
2023-04-02T20:05:54.924Z,3.15
2023-04-02T20:08:22.551Z,4.57
2023-04-02T20:10:51.015Z,3.67
2023-04-02T20:13:18.766Z,4.40
2023-04-02T20:15:47.315Z,7.10
2023-04-02T20:18:15.098Z,4.37
2023-04-02T20:20:46.241Z,3.92
2023-04-02T20:23:14.121Z,6.32
2023-04-02T20:25:52.800Z,3.80
2023-04-02T20:28:21.698Z,4.47
2023-04-02T20:30:50.753Z,4.22
2023-04-02T20:33:23.525Z,4.05
2023-04-02T20:35:52.374Z,5.05
2023-04-02T20:38:19.941Z,5.18
2023-04-02T20:40:52.946Z,4.40
2023-04-02T20:43:20.844Z,4.95
2023-04-02T20:45:55.872Z,6.90
2023-04-02T20:48:24.201Z,5.60
2023-04-02T20:50:52.007Z,5.28
2023-04-02T20:53:19.814Z,6.10
2023-04-02T20:55:47.669Z,6.53
2023-04-02T20:58:17.392Z,4.68
2023-04-02T21:00:45.504Z,4.85
2023-04-02T21:03:13.334Z,4.82
2023-04-02T21:05:47.965Z,5.30
2023-04-02T21:08:15.869Z,5.00
2023-04-02T21:10:43.421Z,5.15
2023-04-02T21:13:10.873Z,6.15
2023-04-02T21:15:43.198Z,5.00
2023-04-02T21:18:10.961Z,5.40
2023-04-02T21:20:38.755Z,6.28
2023-04-02T21:23:06.225Z,5.78
2023-04-02T21:25:33.810Z,5.80
2023-04-02T21:28:01.702Z,6.47
2023-04-02T21:30:29.238Z,5.30
2023-04-02T21:32:56.757Z,5.65
2023-04-02T21:35:24.578Z,4.95
2023-04-02T21:37:52.072Z,6.45
2023-04-02T21:40:19.783Z,6.80
2023-04-02T21:42:49.573Z,6.03
2023-04-02T21:45:17.058Z,4.87
2023-04-02T21:47:44.520Z,5.05
2023-04-02T21:50:12.358Z,5.55
2023-04-02T21:52:39.821Z,5.72
2023-04-02T21:55:07.623Z,6.53
2023-04-02T21:57:35.526Z,5.53
2023-04-02T22:00:08.237Z,6.05
2023-04-02T22:02:36.201Z,9.25
2023-04-02T22:05:04.123Z,6.35
2023-04-02T22:07:31.639Z,5.80
2023-04-02T22:09:59.490Z,6.47
2023-04-02T22:12:26.958Z,6.00
2023-04-02T22:14:54.461Z,7.32
2023-04-02T22:17:22.372Z,6.25
2023-04-02T22:19:49.889Z,6.97
2023-04-02T22:22:17.401Z,6.30
2023-04-02T22:24:45.198Z,7.12
2023-04-02T22:27:12.780Z,5.40
2023-04-02T22:29:40.316Z,5.37
2023-04-02T22:32:08.291Z,6.57
2023-04-02T22:34:36.873Z,8.23
2023-04-02T22:37:04.380Z,5.45
2023-04-02T22:39:32.190Z,8.50
2023-04-02T22:41:59.698Z,8.48
2023-04-02T22:44:27.279Z,7.00
2023-04-02T22:46:55.093Z,7.30
2023-04-02T22:49:22.558Z,6.35
2023-04-02T22:51:50.060Z,6.78
2023-04-02T22:54:17.846Z,7.78
2023-04-02T22:56:45.378Z,6.90
2023-04-02T22:59:13.018Z,7.87
2023-04-02T23:01:41.204Z,6.82
2023-04-02T23:04:09.031Z,6.70
2023-04-02T23:06:36.545Z,6.95
2023-04-02T23:09:04.311Z,8.37
2023-04-02T23:11:31.841Z,6.85
2023-04-02T23:13:59.468Z,7.07
2023-04-02T23:16:29.372Z,6.25
2023-04-02T23:18:58.205Z,9.00
2023-04-02T23:21:26.791Z,6.80
2023-04-02T23:23:55.143Z,6.22
2023-04-02T23:26:27.210Z,7.20
2023-04-02T23:28:59.562Z,6.35
2023-04-02T23:31:27.948Z,6.97
2023-04-02T23:33:55.858Z,6.67
2023-04-02T23:36:26.220Z,6.32
2023-04-02T23:38:55.846Z,8.02
2023-04-02T23:41:27.021Z,5.12
2023-04-02T23:43:56.304Z,7.30
2023-04-02T23:46:25.731Z,6.20
2023-04-02T23:48:54.322Z,7.57
2023-04-02T23:51:22.911Z,7.72
2023-04-02T23:53:51.914Z,6.37
2023-04-02T23:56:19.963Z,8.50
2023-04-02T23:58:47.738Z,5.57
